createdAt,value
2018-11-21T00:01:35.056Z,26.57
2018-11-21T00:04:03.362Z,30.63
2018-11-21T00:06:31.920Z,28.07
2018-11-21T00:09:00.216Z,34.70
2018-11-21T00:11:29.046Z,36.23
2018-11-21T00:13:57.359Z,35.73
2018-11-21T00:16:25.957Z,40.60
2018-11-21T00:19:00.517Z,34.67
2018-11-21T00:21:22.767Z,44.23
2018-11-21T00:23:51.566Z,28.33
2018-11-21T00:26:19.859Z,32.90
2018-11-21T00:28:48.673Z,78.13
2018-11-21T00:31:17.251Z,55.20
2018-11-21T00:33:46.302Z,91.53
2018-11-21T00:36:14.594Z,55.07
2018-11-21T00:38:43.396Z,80.93
2018-11-21T00:41:11.699Z,54.27
2018-11-21T00:43:40.239Z,69.60
2018-11-21T00:46:09.029Z,54.60
2018-11-21T00:48:37.637Z,88.37
2018-11-21T00:51:06.195Z,101.13
2018-11-21T00:53:34.749Z,73.10
2018-11-21T00:56:03.309Z,47.30
2018-11-21T00:58:31.853Z,44.23
2018-11-21T01:01:00.642Z,65.63
2018-11-21T01:03:28.940Z,74.13
2018-11-21T01:05:57.759Z,79.80
2018-11-21T01:08:26.066Z,57.93
2018-11-21T01:10:54.629Z,88.03
2018-11-21T01:13:23.160Z,66.47
2018-11-21T01:15:52.235Z,63.77
2018-11-21T01:18:20.799Z,47.27
2018-11-21T01:20:49.500Z,65.43
2018-11-21T01:23:18.293Z,80.37
2018-11-21T01:25:46.870Z,44.80
2018-11-21T01:28:15.421Z,58.93
2018-11-21T01:30:44.265Z,48.87
2018-11-21T01:33:13.024Z,38.87
2018-11-21T01:35:41.848Z,33.40
2018-11-21T01:38:10.923Z,31.80
2018-11-21T01:40:39.501Z,29.13
2018-11-21T01:43:08.063Z,33.10
2018-11-21T01:45:36.624Z,34.33
2018-11-21T01:48:05.377Z,33.40
2018-11-21T01:50:34.456Z,36.17
2018-11-21T01:53:03.289Z,33.70
2018-11-21T01:55:31.876Z,42.07
2018-11-21T01:58:00.418Z,34.57
2018-11-21T02:00:28.730Z,34.33
2018-11-21T02:02:57.326Z,38.77
2018-11-21T02:05:26.149Z,40.20
2018-11-21T02:07:54.431Z,71.43
2018-11-21T02:10:23.534Z,60.10
2018-11-21T02:12:52.609Z,31.00
2018-11-21T02:15:21.413Z,47.20
2018-11-21T02:17:50.247Z,56.60
2018-11-21T02:20:19.298Z,53.00
2018-11-21T02:22:47.872Z,58.40
2018-11-21T02:25:16.691Z,56.37
2018-11-21T02:27:45.753Z,53.70
2018-11-21T02:30:14.030Z,54.40
2018-11-21T02:32:42.572Z,51.93
2018-11-21T02:35:11.120Z,37.50
2018-11-21T02:37:39.680Z,39.97
2018-11-21T02:40:08.724Z,51.77
2018-11-21T02:42:37.626Z,44.93
2018-11-21T02:45:06.497Z,53.07
2018-11-21T02:47:34.785Z,47.20
2018-11-21T02:50:03.334Z,40.57
2018-11-21T02:52:32.132Z,46.70
2018-11-21T02:55:00.688Z,50.40
2018-11-21T02:57:33.553Z,77.20
2018-11-21T03:00:07.437Z,60.13
2018-11-21T03:02:35.995Z,57.23
2018-11-21T03:05:04.539Z,43.57
2018-11-21T03:07:32.853Z,50.17
2018-11-21T03:10:01.713Z,60.60
2018-11-21T03:12:31.579Z,46.50
2018-11-21T03:14:59.887Z,40.17
2018-11-21T03:17:28.696Z,51.57
2018-11-21T03:19:57.516Z,45.03
2018-11-21T03:22:26.321Z,59.93
2018-11-21T03:24:55.173Z,62.43
2018-11-21T03:27:23.965Z,49.23
2018-11-21T03:29:52.531Z,56.30
2018-11-21T03:32:21.092Z,59.93
2018-11-21T03:34:49.654Z,57.17
2018-11-21T03:37:18.205Z,42.47
2018-11-21T03:39:46.769Z,38.33
2018-11-21T03:42:15.577Z,55.50
2018-11-21T03:44:44.393Z,54.07
2018-11-21T03:47:12.944Z,51.57
2018-11-21T03:49:41.997Z,45.13
2018-11-21T03:52:10.822Z,77.37
2018-11-21T03:54:39.627Z,56.27
2018-11-21T03:57:08.199Z,52.43
2018-11-21T03:59:36.991Z,50.53
2018-11-21T04:02:05.961Z,63.13
2018-11-21T04:04:34.256Z,73.90
2018-11-21T04:07:03.315Z,69.57
2018-11-21T04:09:31.625Z,67.73
2018-11-21T04:12:00.187Z,84.63
2018-11-21T04:14:29.006Z,69.43
2018-11-21T04:16:57.815Z,50.77
2018-11-21T04:19:26.623Z,65.37
2018-11-21T04:21:56.906Z,55.70
2018-11-21T04:24:25.719Z,51.00
2018-11-21T04:26:54.271Z,49.07
2018-11-21T04:29:23.073Z,44.30
2018-11-21T04:31:51.360Z,54.30
2018-11-21T04:34:19.653Z,49.23
2018-11-21T04:36:48.215Z,50.63
2018-11-21T04:39:16.771Z,61.23
2018-11-21T04:41:45.326Z,50.67
2018-11-21T04:44:13.921Z,48.27
2018-11-21T04:46:42.711Z,43.77
2018-11-21T04:49:11.004Z,41.30
2018-11-21T04:51:39.545Z,39.43
2018-11-21T04:54:08.383Z,47.33
2018-11-21T04:56:36.678Z,43.33
2018-11-21T04:59:06.000Z,43.50
2018-11-21T05:01:34.940Z,43.33
2018-11-21T05:04:03.513Z,41.10
2018-11-21T05:06:32.057Z,44.03
2018-11-21T05:09:00.339Z,47.40
2018-11-21T05:11:29.186Z,43.97
2018-11-21T05:13:58.022Z,46.37
2018-11-21T05:16:26.573Z,44.33
2018-11-21T05:18:55.131Z,41.83
2018-11-21T05:21:23.924Z,53.23
2018-11-21T05:23:52.212Z,51.13
2018-11-21T05:26:20.499Z,48.73
2018-11-21T05:28:49.324Z,51.00
2018-11-21T05:31:18.113Z,44.60
2018-11-21T05:33:46.895Z,47.47
2018-11-21T05:36:15.367Z,42.83
2018-11-21T05:38:43.917Z,43.63
2018-11-21T05:41:12.473Z,42.33
2018-11-21T05:43:41.035Z,40.83
2018-11-21T05:46:09.667Z,47.47
2018-11-21T05:48:37.993Z,56.33
2018-11-21T05:51:06.545Z,47.50
2018-11-21T05:53:35.101Z,41.90
2018-11-21T05:56:03.639Z,42.43
2018-11-21T05:58:31.941Z,45.07
2018-11-21T06:01:00.492Z,50.40
2018-11-21T06:03:29.041Z,49.03
2018-11-21T06:05:57.591Z,54.93
2018-11-21T06:08:26.467Z,54.27
2018-11-21T06:10:55.293Z,51.00
2018-11-21T06:13:23.833Z,49.37
2018-11-21T06:15:52.633Z,46.77
2018-11-21T06:18:20.927Z,51.47
2018-11-21T06:20:49.480Z,47.80
2018-11-21T06:23:18.029Z,97.97
2018-11-21T06:25:46.929Z,54.33
2018-11-21T06:28:15.495Z,53.87
2018-11-21T06:30:43.785Z,48.33
2018-11-21T06:33:12.384Z,57.10
2018-11-21T06:35:41.180Z,55.30
2018-11-21T06:38:09.751Z,50.53
2018-11-21T06:40:38.035Z,55.00
2018-11-21T06:43:06.883Z,62.33
2018-11-21T06:45:35.448Z,48.93
2018-11-21T06:48:03.987Z,49.00
2018-11-21T06:50:32.809Z,47.77
2018-11-21T06:53:01.591Z,41.73
2018-11-21T06:55:30.159Z,42.87
2018-11-21T06:57:58.701Z,40.23
2018-11-21T07:00:27.534Z,46.67
2018-11-21T07:02:56.652Z,40.37
2018-11-21T07:05:25.222Z,40.17
2018-11-21T07:07:54.374Z,39.03
2018-11-21T07:10:23.171Z,43.07
2018-11-21T07:12:52.002Z,39.37
2018-11-21T07:15:20.836Z,41.40
2018-11-21T07:17:49.144Z,39.33
2018-11-21T07:20:17.426Z,40.10
2018-11-21T07:22:45.738Z,39.47
2018-11-21T07:25:16.783Z,38.43
2018-11-21T07:27:45.441Z,42.90
2018-11-21T07:30:17.458Z,41.90
2018-11-21T07:32:46.268Z,42.50
2018-11-21T07:35:18.092Z,43.83
2018-11-21T07:37:44.637Z,41.63
2018-11-21T07:40:14.475Z,37.90
2018-11-21T07:42:44.407Z,42.93
2018-11-21T07:45:14.718Z,41.70
2018-11-21T07:47:44.028Z,38.77
2018-11-21T07:50:14.981Z,41.83
2018-11-21T07:52:43.615Z,42.13
2018-11-21T07:55:13.250Z,42.13
2018-11-21T07:57:49.719Z,42.17
2018-11-21T08:01:05.901Z,46.77
2018-11-21T08:03:53.377Z,58.70
2018-11-21T08:06:41.440Z,46.43
2018-11-21T08:09:27.574Z,53.60
2018-11-21T08:12:33.085Z,51.90
2018-11-21T08:15:32.577Z,46.57
2018-11-21T08:18:20.288Z,52.00
2018-11-21T08:20:58.867Z,49.60
2018-11-21T08:23:39.850Z,43.17
2018-11-21T08:26:26.035Z,38.27
2018-11-21T08:28:54.877Z,38.63
2018-11-21T08:31:23.731Z,35.87
2018-11-21T08:33:52.810Z,39.77
2018-11-21T08:36:21.368Z,38.57
2018-11-21T08:38:49.911Z,34.13
2018-11-21T08:41:18.460Z,36.20
2018-11-21T08:43:47.036Z,32.13
2018-11-21T08:46:15.834Z,35.53
2018-11-21T08:48:44.385Z,35.70
2018-11-21T08:51:12.674Z,33.37
2018-11-21T08:53:41.480Z,32.23
2018-11-21T08:56:10.286Z,32.00
2018-11-21T08:58:38.848Z,35.43
2018-11-21T09:01:07.418Z,37.43
2018-11-21T09:03:36.231Z,35.60
2018-11-21T09:06:04.986Z,34.43
2018-11-21T09:08:33.546Z,38.90
2018-11-21T09:11:02.354Z,35.00
2018-11-21T09:13:31.169Z,35.23
2018-11-21T09:15:59.755Z,38.83
2018-11-21T09:18:28.550Z,40.30
2018-11-21T09:20:57.141Z,40.43
2018-11-21T09:23:26.123Z,36.77
2018-11-21T09:25:54.934Z,46.80
2018-11-21T09:28:23.305Z,39.53
2018-11-21T09:30:52.081Z,36.60
2018-11-21T09:33:21.001Z,37.00
2018-11-21T09:35:49.706Z,38.97
2018-11-21T09:38:18.801Z,43.23
2018-11-21T09:40:47.334Z,40.03
2018-11-21T09:43:16.374Z,42.60
2018-11-21T09:45:44.992Z,40.00
2018-11-21T09:48:13.544Z,37.30
2018-11-21T09:50:42.365Z,40.30
2018-11-21T09:53:10.655Z,37.23
2018-11-21T09:55:40.548Z,37.23
2018-11-21T09:58:07.755Z,36.80
2018-11-21T10:01:28.330Z,35.80
2018-11-21T10:04:00.926Z,33.43
2018-11-21T10:06:27.667Z,33.90
2018-11-21T10:09:05.171Z,37.83
2018-11-21T10:11:34.952Z,34.83
2018-11-21T10:14:03.488Z,39.43
2018-11-21T10:16:31.779Z,36.00
2018-11-21T10:19:00.420Z,36.10
2018-11-21T10:21:30.861Z,37.97
2018-11-21T10:23:59.464Z,39.30
2018-11-21T10:26:28.281Z,36.30
2018-11-21T10:28:56.596Z,37.63
2018-11-21T10:31:25.395Z,39.47
2018-11-21T10:33:53.975Z,36.00
2018-11-21T10:36:22.302Z,36.20
2018-11-21T10:38:50.875Z,34.53
2018-11-21T10:41:19.419Z,36.57
2018-11-21T10:43:47.991Z,35.20
2018-11-21T10:46:16.824Z,38.60
2018-11-21T10:48:45.155Z,39.07
2018-11-21T10:51:15.017Z,39.97
2018-11-21T10:53:42.304Z,43.53
2018-11-21T10:56:11.495Z,40.27
2018-11-21T10:58:40.310Z,37.23
2018-11-21T11:01:27.196Z,36.47
2018-11-21T11:04:17.633Z,33.10
2018-11-21T11:07:04.046Z,35.27
2018-11-21T11:10:00.262Z,33.03
2018-11-21T11:13:03.364Z,33.57
2018-11-21T11:15:42.576Z,32.67
2018-11-21T11:18:42.064Z,36.33
2018-11-21T11:21:32.526Z,34.90
2018-11-21T11:24:26.157Z,40.17
2018-11-21T11:27:12.365Z,39.57
2018-11-21T11:30:00.976Z,39.93
2018-11-21T11:32:36.526Z,40.93
2018-11-21T11:35:39.627Z,40.50
2018-11-21T11:38:36.199Z,40.27
2018-11-21T11:41:22.456Z,39.20
2018-11-21T11:44:21.899Z,39.17
2018-11-21T11:47:08.078Z,36.40
2018-11-21T11:49:55.557Z,38.07
2018-11-21T11:52:41.445Z,40.40
2018-11-21T11:55:46.842Z,36.47
2018-11-21T11:58:34.798Z,39.50
2018-11-21T12:01:20.702Z,40.23
2018-11-21T12:04:19.806Z,40.23
2018-11-21T12:07:13.341Z,45.83
2018-11-21T12:10:05.129Z,42.33
2018-11-21T12:12:58.401Z,40.13
2018-11-21T12:15:41.386Z,40.40
2018-11-21T12:18:40.921Z,37.87
2018-11-21T12:21:43.422Z,37.03
2018-11-21T12:24:42.893Z,37.00
2018-11-21T12:27:30.581Z,37.70
2018-11-21T12:30:20.777Z,40.23
2018-11-21T12:33:11.308Z,39.57
2018-11-21T12:36:11.128Z,42.70
2018-11-21T12:38:57.453Z,42.33
2018-11-21T12:41:50.876Z,42.13
2018-11-21T12:44:44.081Z,38.80
2018-11-21T12:47:48.205Z,39.23
2018-11-21T12:50:50.370Z,42.63
2018-11-21T12:53:36.208Z,40.00
2018-11-21T12:56:15.342Z,38.67
2018-11-21T12:59:04.005Z,41.77
2018-11-21T13:01:51.461Z,41.43
2018-11-21T13:04:35.636Z,39.37
2018-11-21T13:07:18.700Z,41.67
2018-11-21T13:09:57.790Z,41.60
2018-11-21T13:12:35.601Z,40.57
2018-11-21T13:15:29.757Z,41.07
2018-11-21T13:18:23.832Z,42.50
2018-11-21T13:21:14.747Z,42.37
2018-11-21T13:24:12.409Z,41.57
2018-11-21T13:26:58.920Z,38.57
2018-11-21T13:29:54.983Z,44.63
2018-11-21T13:32:40.850Z,39.87
2018-11-21T13:35:28.562Z,40.63
2018-11-21T13:38:10.441Z,37.03
2018-11-21T13:40:56.752Z,40.03
2018-11-21T13:43:44.186Z,40.80
2018-11-21T13:46:29.691Z,41.47
2018-11-21T13:49:15.504Z,44.57
2018-11-21T13:52:15.475Z,44.53
2018-11-21T13:54:48.715Z,41.30
2018-11-21T13:57:18.532Z,42.30
2018-11-21T13:59:47.087Z,45.03
2018-11-21T14:02:15.345Z,46.83
2018-11-21T14:04:44.115Z,41.57
2018-11-21T14:07:12.669Z,42.57
2018-11-21T14:09:41.186Z,42.30
2018-11-21T14:12:09.633Z,42.73
2018-11-21T14:14:38.340Z,41.33
2018-11-21T14:17:06.773Z,41.20
2018-11-21T14:19:35.290Z,43.23
2018-11-21T14:22:03.809Z,42.77
2018-11-21T14:24:32.112Z,43.33
2018-11-21T14:27:00.364Z,45.53
2018-11-21T14:29:28.623Z,46.57
2018-11-21T14:31:57.158Z,44.53
2018-11-21T14:34:25.511Z,43.87
2018-11-21T14:36:54.010Z,43.40
2018-11-21T14:39:22.819Z,43.33
2018-11-21T14:41:51.343Z,41.00
2018-11-21T14:44:19.621Z,42.40
2018-11-21T14:46:50.265Z,41.10
2018-11-21T14:49:19.125Z,42.57
2018-11-21T14:51:47.647Z,42.27
2018-11-21T14:54:16.429Z,43.00
2018-11-21T14:56:45.204Z,40.57
2018-11-21T14:59:13.972Z,42.40
2018-11-21T15:01:43.265Z,42.87
2018-11-21T15:04:11.546Z,44.37
2018-11-21T15:06:39.814Z,43.47
2018-11-21T15:09:09.657Z,41.63
2018-11-21T15:11:38.849Z,42.57
2018-11-21T15:14:07.651Z,44.17
2018-11-21T15:16:36.980Z,39.10
2018-11-21T15:19:04.190Z,38.47
2018-11-21T15:21:32.701Z,40.57
2018-11-21T15:24:00.970Z,40.60
2018-11-21T15:26:29.685Z,43.90
2018-11-21T15:28:58.223Z,43.03
2018-11-21T15:31:26.483Z,41.80
2018-11-21T15:33:54.753Z,40.87
2018-11-21T15:36:23.016Z,40.83
2018-11-21T15:38:54.197Z,38.70
2018-11-21T15:41:22.460Z,41.83
2018-11-21T15:43:50.833Z,42.77
2018-11-21T15:46:19.592Z,41.67
2018-11-21T15:48:47.926Z,38.33
2018-11-21T15:51:16.246Z,37.13
2018-11-21T15:53:44.512Z,37.43
2018-11-21T15:56:13.725Z,36.20
2018-11-21T15:58:42.278Z,36.97
2018-11-21T16:01:11.333Z,34.17
2018-11-21T16:03:39.907Z,40.53
2018-11-21T16:06:09.647Z,37.40
2018-11-21T16:08:37.189Z,33.07
2018-11-21T16:11:05.466Z,36.77
2018-11-21T16:13:34.288Z,35.47
2018-11-21T16:16:02.552Z,36.90
2018-11-21T16:18:30.857Z,34.03
2018-11-21T16:20:59.385Z,40.03
2018-11-21T16:23:27.896Z,32.23
2018-11-21T16:25:56.935Z,32.30
2018-11-21T16:28:25.453Z,35.10
2018-11-21T16:30:54.042Z,34.47
2018-11-21T16:33:22.540Z,34.03
2018-11-21T16:35:50.825Z,32.33
2018-11-21T16:38:19.106Z,34.00
2018-11-21T16:40:47.359Z,30.77
2018-11-21T16:43:15.921Z,32.20
2018-11-21T16:45:46.230Z,35.70
2018-11-21T16:48:15.034Z,33.47
2018-11-21T16:50:43.321Z,37.50
2018-11-21T16:53:11.843Z,35.33
2018-11-21T16:55:40.115Z,37.00
2018-11-21T16:58:08.462Z,34.60
2018-11-21T17:00:36.997Z,34.87
2018-11-21T17:03:05.985Z,32.50
2018-11-21T17:05:34.527Z,37.90
2018-11-21T17:08:03.311Z,37.80
2018-11-21T17:10:32.158Z,38.43
2018-11-21T17:13:00.689Z,35.40
2018-11-21T17:15:31.133Z,37.73
2018-11-21T17:17:59.397Z,37.13
2018-11-21T17:20:32.585Z,38.67
2018-11-21T17:23:01.294Z,39.00
2018-11-21T17:25:31.199Z,36.87
2018-11-21T17:27:59.462Z,41.87
2018-11-21T17:30:27.729Z,41.03
2018-11-21T17:32:56.104Z,40.03
2018-11-21T17:35:24.994Z,40.17
2018-11-21T17:37:54.329Z,39.10
2018-11-21T17:40:25.941Z,38.60
2018-11-21T17:42:54.719Z,37.90
2018-11-21T17:45:23.229Z,39.83
2018-11-21T17:47:51.494Z,35.33
2018-11-21T17:50:21.839Z,38.03
2018-11-21T17:52:54.565Z,38.57
2018-11-21T17:55:24.620Z,38.10
2018-11-21T17:57:53.665Z,36.33
2018-11-21T18:00:24.302Z,37.70
2018-11-21T18:02:52.739Z,35.37
2018-11-21T18:05:23.701Z,39.03
2018-11-21T18:07:52.369Z,37.77
2018-11-21T18:10:25.321Z,36.27
2018-11-21T18:12:54.022Z,36.67
2018-11-21T18:15:23.187Z,38.47
2018-11-21T18:17:51.506Z,36.87
2018-11-21T18:20:20.739Z,38.90
2018-11-21T18:22:50.174Z,34.57
2018-11-21T18:25:20.597Z,35.07
2018-11-21T18:27:49.131Z,38.87
2018-11-21T18:30:19.270Z,35.00
2018-11-21T18:32:47.917Z,34.33
2018-11-21T18:35:18.045Z,34.10
2018-11-21T18:37:47.163Z,35.73
2018-11-21T18:40:26.769Z,35.23
2018-11-21T18:42:55.235Z,36.17
2018-11-21T18:45:30.000Z,34.33
2018-11-21T18:47:58.348Z,37.30
2018-11-21T18:50:26.880Z,38.30
2018-11-21T18:52:56.420Z,33.80
2018-11-21T18:55:26.888Z,36.70
2018-11-21T18:58:14.062Z,33.80
2018-11-21T19:00:43.866Z,33.17
2018-11-21T19:03:12.400Z,33.33
2018-11-21T19:05:40.660Z,35.10
2018-11-21T19:08:09.225Z,32.07
2018-11-21T19:10:37.773Z,33.33
2018-11-21T19:13:06.440Z,31.00
2018-11-21T19:15:34.965Z,33.37
2018-11-21T19:18:03.762Z,27.27
2018-11-21T19:20:32.573Z,29.73
2018-11-21T19:23:00.853Z,28.53
2018-11-21T19:25:29.440Z,28.83
2018-11-21T19:27:58.248Z,27.97
2018-11-21T19:30:26.825Z,29.27
2018-11-21T19:32:55.332Z,28.93
2018-11-21T19:35:23.874Z,26.30
2018-11-21T19:37:52.690Z,29.77
2018-11-21T19:40:21.224Z,27.33
2018-11-21T19:42:50.041Z,27.43
2018-11-21T19:45:18.309Z,27.07
2018-11-21T19:47:47.216Z,24.67
2018-11-21T19:50:17.229Z,27.53
2018-11-21T19:52:46.224Z,27.13
2018-11-21T19:55:16.384Z,23.57
2018-11-21T19:57:45.467Z,26.37
2018-11-21T20:00:22.388Z,26.13
2018-11-21T20:02:50.922Z,25.60
2018-11-21T20:05:19.505Z,25.93
2018-11-21T20:07:47.773Z,26.80
2018-11-21T20:10:17.122Z,26.90
2018-11-21T20:12:45.749Z,23.07
2018-11-21T20:15:15.701Z,26.10
2018-11-21T20:17:46.615Z,24.37
2018-11-21T20:20:16.413Z,25.43
2018-11-21T20:22:45.523Z,24.20
2018-11-21T20:25:15.335Z,23.50
2018-11-21T20:27:43.872Z,23.37
2018-11-21T20:30:17.911Z,25.43
2018-11-21T20:32:46.192Z,24.17
2018-11-21T20:35:15.004Z,24.93
2018-11-21T20:37:43.804Z,29.57
2018-11-21T20:40:17.372Z,30.90
2018-11-21T20:42:46.718Z,26.77
2018-11-21T20:45:16.642Z,26.13
2018-11-21T20:47:45.730Z,23.57
2018-11-21T20:50:14.277Z,21.80
2018-11-21T20:52:43.567Z,24.03
2018-11-21T20:55:12.893Z,29.73
2018-11-21T20:57:41.883Z,26.03
2018-11-21T21:00:15.343Z,43.20
2018-11-21T21:02:43.866Z,45.37
2018-11-21T21:05:14.029Z,75.47
2018-11-21T21:07:43.238Z,23.43
2018-11-21T21:10:17.760Z,24.77
2018-11-21T21:12:46.030Z,23.60
2018-11-21T21:15:14.570Z,24.63
2018-11-21T21:17:44.491Z,21.23
2018-11-21T21:20:14.942Z,21.10
2018-11-21T21:22:44.067Z,22.23
2018-11-21T21:25:14.064Z,24.43
2018-11-21T21:27:42.373Z,21.83
2018-11-21T21:30:14.162Z,20.97
2018-11-21T21:32:43.614Z,23.33
2018-11-21T21:35:13.186Z,18.80
2018-11-21T21:37:41.737Z,23.33
2018-11-21T21:40:12.350Z,20.53
2018-11-21T21:42:40.837Z,20.80
2018-11-21T21:45:11.199Z,19.30
2018-11-21T21:47:41.673Z,20.83
2018-11-21T21:50:09.561Z,22.73
2018-11-21T21:52:38.348Z,22.50
2018-11-21T21:55:08.092Z,18.67
2018-11-21T21:57:36.647Z,22.33
2018-11-21T22:00:10.504Z,20.90
2018-11-21T22:02:38.801Z,21.70
2018-11-21T22:05:08.273Z,21.87
2018-11-21T22:07:36.966Z,22.50
2018-11-21T22:10:07.030Z,22.10
2018-11-21T22:12:35.578Z,21.57
2018-11-21T22:15:03.869Z,22.87
2018-11-21T22:17:32.942Z,23.27
2018-11-21T22:20:01.609Z,23.77
2018-11-21T22:22:30.439Z,23.70
2018-11-21T22:24:58.721Z,22.07
2018-11-21T22:27:26.989Z,20.63
2018-11-21T22:29:55.796Z,24.30
2018-11-21T22:32:24.329Z,22.80
2018-11-21T22:34:52.900Z,22.03
2018-11-21T22:37:21.587Z,21.77
2018-11-21T22:39:49.912Z,23.30
2018-11-21T22:42:18.466Z,21.20
2018-11-21T22:44:46.737Z,20.50
2018-11-21T22:47:15.308Z,23.40
2018-11-21T22:49:43.879Z,25.53
2018-11-21T22:52:12.176Z,23.23
2018-11-21T22:54:40.725Z,26.90
2018-11-21T22:57:09.297Z,26.70
2018-11-21T22:59:38.073Z,24.87
2018-11-21T23:02:07.152Z,27.23
2018-11-21T23:04:35.688Z,27.30
2018-11-21T23:07:04.559Z,24.73
2018-11-21T23:09:33.201Z,27.07
2018-11-21T23:12:01.494Z,25.23
2018-11-21T23:14:30.094Z,25.60
2018-11-21T23:16:58.902Z,25.67
2018-11-21T23:19:27.187Z,23.90
2018-11-21T23:21:55.718Z,25.70
2018-11-21T23:24:24.038Z,29.83
2018-11-21T23:26:52.589Z,27.77
2018-11-21T23:29:21.141Z,27.37
2018-11-21T23:31:49.739Z,27.33
2018-11-21T23:34:18.270Z,27.17
2018-11-21T23:36:46.843Z,27.80
2018-11-21T23:39:15.181Z,27.30
2018-11-21T23:41:43.781Z,27.20
2018-11-21T23:44:12.353Z,28.33
2018-11-21T23:46:41.232Z,26.90
2018-11-21T23:49:09.786Z,28.60
2018-11-21T23:51:38.600Z,27.93
2018-11-21T23:54:06.875Z,29.13
2018-11-21T23:56:35.421Z,28.70
2018-11-21T23:59:03.752Z,27.73
